Arlington, Virginia
Current Conditions -  °F | °C
As of 3:52 AM on Saturday 25 Oct 2014 (Local Time) from KDCA Reporting Station
Clear Clear  
Wind Chill: 11°   Ceiling: Unl
Heat Index: 11°   Visibility: 10mi
Dew Point:   Wind: 6mph
Humidity: 63%   Direction: 350°N
Pressure: 29.96"   Gusts: NA
Location:  38.89°N, 77.09°W
Report Text: KDCA 250752Z 35005KT 10SM CLR 11/04 A2996 RMK AO2 SLP145 T01060039 $
Loading
Personal Weather Stations






























Interactive Weather Map
Tropical Storm Tracking
New forecast layout! Learn more

10-Day Weather Forecast

Advertisements
Track Severe Weather on mobile